createdAt,value
2018-12-29T09:01:55.146Z,97697.44
2018-12-29T09:04:22.322Z,97702.50
2018-12-29T09:06:49.351Z,97712.32
2018-12-29T09:09:16.397Z,97709.03
2018-12-29T09:11:43.450Z,97709.38
2018-12-29T09:14:10.494Z,97722.89
2018-12-29T09:16:37.557Z,97728.71
2018-12-29T09:19:04.610Z,97728.71
2018-12-29T09:21:31.697Z,97731.00
2018-12-29T09:23:58.769Z,97726.91
2018-12-29T09:26:25.825Z,97739.02
2018-12-29T09:28:52.876Z,97745.00
2018-12-29T09:31:19.919Z,97746.75
2018-12-29T09:33:46.964Z,97747.72
2018-12-29T09:36:14.065Z,97736.66
2018-12-29T09:38:41.114Z,97740.77
2018-12-29T09:41:08.145Z,97739.80
2018-12-29T09:43:35.226Z,97736.80
2018-12-29T09:46:02.323Z,97741.73
2018-12-29T09:48:29.356Z,97746.05
2018-12-29T09:50:56.397Z,97752.66
2018-12-29T09:53:23.456Z,97748.77
2018-12-29T09:55:50.535Z,97751.47
2018-12-29T09:58:17.616Z,97748.69
2018-12-29T10:00:44.691Z,97748.20
2018-12-29T10:03:11.754Z,97745.91
2018-12-29T10:05:38.839Z,97723.80
2018-12-29T10:08:05.937Z,97723.80
2018-12-29T10:10:33.023Z,97737.91
2018-12-29T10:13:00.113Z,97735.06
2018-12-29T10:15:27.177Z,97700.97
2018-12-29T10:17:54.255Z,97710.97
2018-12-29T10:20:21.301Z,97726.28
2018-12-29T10:22:48.373Z,97721.27
2018-12-29T10:25:15.421Z,97714.59
2018-12-29T10:27:42.481Z,97728.45
2018-12-29T10:30:09.539Z,97716.85
2018-12-29T10:32:36.605Z,97710.17
2018-12-29T10:35:03.701Z,97704.95
2018-12-29T10:37:30.786Z,97702.30
2018-12-29T10:39:57.889Z,97696.83
2018-12-29T10:42:24.949Z,97696.83
2018-12-29T10:44:52.000Z,97694.80
2018-12-29T10:47:19.055Z,97698.49
2018-12-29T10:49:46.109Z,97705.45
2018-12-29T10:52:13.208Z,97697.79
2018-12-29T10:54:40.282Z,97701.96
2018-12-29T10:57:07.360Z,97695.20
2018-12-29T10:59:34.430Z,97696.73
2018-12-29T11:02:01.517Z,97702.52
2018-12-29T11:04:28.562Z,97699.69
2018-12-29T11:06:55.632Z,97710.34
2018-12-29T11:09:22.701Z,97704.13
2018-12-29T11:11:49.769Z,97704.13
2018-12-29T11:14:16.823Z,97702.03
2018-12-29T11:16:45.542Z,97702.75
2018-12-29T11:19:12.585Z,97696.55
2018-12-29T11:21:39.656Z,97698.98
2018-12-29T11:24:06.744Z,97699.68
2018-12-29T11:26:33.794Z,97694.50
2018-12-29T11:29:00.850Z,97696.73
2018-12-29T11:31:27.893Z,97691.93
2018-12-29T11:33:55.191Z,97689.64
2018-12-29T11:36:22.247Z,97689.63
2018-12-29T11:38:49.276Z,97681.38
2018-12-29T11:41:16.352Z,97678.09
2018-12-29T11:43:43.406Z,97682.22
2018-12-29T11:46:10.437Z,97678.38
2018-12-29T11:48:37.505Z,97671.70
2018-12-29T11:51:04.535Z,97667.93
2018-12-29T11:53:31.795Z,97671.47
2018-12-29T11:55:58.839Z,97669.66
2018-12-29T11:58:25.882Z,97673.55
2018-12-29T12:00:52.949Z,97668.97
2018-12-29T12:03:20.007Z,97674.83
2018-12-29T12:05:47.163Z,97674.83
2018-12-29T12:08:14.240Z,97678.70
2018-12-29T12:10:41.292Z,97678.11
2018-12-29T12:13:08.364Z,97686.84
2018-12-29T12:15:35.413Z,97676.97
2018-12-29T12:18:02.462Z,97682.01
2018-12-29T12:20:29.719Z,97676.63
2018-12-29T12:22:56.816Z,97681.92
2018-12-29T12:25:23.875Z,97678.88
2018-12-29T12:27:51.123Z,97684.30
2018-12-29T12:30:18.191Z,97679.09
2018-12-29T12:32:45.227Z,97682.98
2018-12-29T12:35:12.326Z,97687.39
2018-12-29T12:37:39.406Z,97686.22
2018-12-29T12:40:06.443Z,97695.19
2018-12-29T12:42:33.519Z,97696.61
2018-12-29T12:45:00.566Z,97698.38
2018-12-29T12:47:27.745Z,97683.41
2018-12-29T12:49:54.929Z,97693.98
2018-12-29T12:52:22.293Z,97682.22
2018-12-29T12:54:49.345Z,97686.04
2018-12-29T12:57:16.691Z,97685.23
2018-12-29T12:59:44.146Z,97679.14
2018-12-29T13:02:11.219Z,97677.03
2018-12-29T13:04:38.469Z,97676.73
2018-12-29T13:07:05.541Z,97678.40
2018-12-29T13:09:32.617Z,97673.59
2018-12-29T13:11:59.678Z,97677.61
2018-12-29T13:14:26.705Z,97676.80
2018-12-29T13:16:53.760Z,97680.47
2018-12-29T13:19:28.393Z,97670.36
2018-12-29T13:21:49.899Z,97670.70
2018-12-29T13:24:16.982Z,97667.06
2018-12-29T13:26:44.027Z,97667.75
2018-12-29T13:29:11.077Z,97659.50
2018-12-29T13:31:38.124Z,97649.44
2018-12-29T13:34:05.214Z,97646.97
2018-12-29T13:36:32.274Z,97645.69
2018-12-29T13:38:59.350Z,97640.77
2018-12-29T13:41:26.399Z,97641.98
2018-12-29T13:43:53.451Z,97644.48
2018-12-29T13:46:20.614Z,97647.37
2018-12-29T13:48:47.659Z,97648.88
2018-12-29T13:51:14.687Z,97643.08
2018-12-29T13:53:41.726Z,97644.22
2018-12-29T13:56:08.783Z,97649.38
2018-12-29T13:58:35.830Z,97643.42
2018-12-29T14:01:02.871Z,97643.92
2018-12-29T14:03:29.941Z,97646.77
2018-12-29T14:05:57.051Z,97651.39
2018-12-29T14:08:24.104Z,97648.23
2018-12-29T14:10:51.161Z,97643.23
2018-12-29T14:13:18.570Z,97634.78
2018-12-29T14:15:45.601Z,97634.13
2018-12-29T14:18:12.642Z,97635.46
2018-12-29T14:20:39.706Z,97630.65
2018-12-29T14:23:06.766Z,97639.94
2018-12-29T14:25:33.795Z,97632.81
2018-12-29T14:28:00.830Z,97647.25
2018-12-29T14:30:27.866Z,97643.42
2018-12-29T14:32:54.941Z,97639.63
2018-12-29T14:35:21.994Z,97634.33
2018-12-29T14:37:49.098Z,97631.67
2018-12-29T14:40:16.457Z,97636.64
2018-12-29T14:42:43.532Z,97636.98
2018-12-29T14:45:10.576Z,97628.68
2018-12-29T14:47:37.610Z,97629.70
2018-12-29T14:50:05.090Z,97624.08
2018-12-29T14:52:32.133Z,97620.29
2018-12-29T14:54:59.177Z,97619.12
2018-12-29T14:57:26.211Z,97619.42
2018-12-29T14:59:53.280Z,97614.27
2018-12-29T15:02:20.318Z,97620.23
2018-12-29T15:04:47.368Z,97610.94
2018-12-29T15:07:14.725Z,97601.46
2018-12-29T15:09:41.769Z,97599.12
2018-12-29T15:12:08.863Z,97602.48
2018-12-29T15:14:35.936Z,97592.86
2018-12-29T15:17:03.001Z,97586.36
2018-12-29T15:19:30.054Z,97581.05
2018-12-29T15:21:57.131Z,97583.69
2018-12-29T15:24:24.208Z,97574.03
2018-12-29T15:26:51.300Z,97580.69
2018-12-29T15:29:18.656Z,97578.30
2018-12-29T15:31:45.737Z,97570.31
2018-12-29T15:34:12.853Z,97580.41
2018-12-29T15:36:39.968Z,97577.05
2018-12-29T15:39:07.047Z,97579.19
2018-12-29T15:41:34.131Z,97564.72
2018-12-29T15:44:01.421Z,97566.76
2018-12-29T15:46:28.490Z,97567.03
2018-12-29T15:48:55.568Z,97564.73
2018-12-29T15:51:22.970Z,97566.03
2018-12-29T15:53:50.113Z,97558.62
2018-12-29T15:56:17.506Z,97561.55
2018-12-29T15:58:44.576Z,97558.30
2018-12-29T16:01:11.863Z,97564.29
2018-12-29T16:03:38.950Z,97565.55
2018-12-29T16:06:06.055Z,97563.48
2018-12-29T16:08:33.123Z,97558.12
2018-12-29T16:11:00.251Z,97552.11
2018-12-29T16:13:27.315Z,97553.20
2018-12-29T16:15:54.409Z,97550.45
2018-12-29T16:18:21.897Z,97559.61
2018-12-29T16:20:53.547Z,97557.72
2018-12-29T16:23:26.142Z,97555.44
2018-12-29T16:25:59.763Z,97562.87
2018-12-29T16:28:26.841Z,97559.30
2018-12-29T16:30:53.921Z,97562.19
2018-12-29T16:33:21.061Z,97559.73
2018-12-29T16:35:48.335Z,97554.31
2018-12-29T16:38:15.410Z,97555.73
2018-12-29T16:40:42.549Z,97557.45
2018-12-29T16:43:09.661Z,97554.04
2018-12-29T16:45:36.747Z,97551.30
2018-12-29T16:48:04.230Z,97540.59
2018-12-29T16:50:31.403Z,97539.70
2018-12-29T16:52:58.507Z,97537.12
2018-12-29T16:55:25.594Z,97535.59
2018-12-29T16:57:52.708Z,97529.07
2018-12-29T17:00:19.812Z,97532.51
2018-12-29T17:02:46.884Z,97532.80
2018-12-29T17:05:13.966Z,97523.52
2018-12-29T17:07:41.075Z,97523.33
2018-12-29T17:10:08.198Z,97519.16
2018-12-29T17:12:36.890Z,97512.00
2018-12-29T17:15:04.390Z,97511.81
2018-12-29T17:17:32.727Z,97511.30
2018-12-29T17:19:59.829Z,97500.86
2018-12-29T17:22:27.215Z,97499.69
2018-12-29T17:24:54.333Z,97491.40
2018-12-29T17:27:21.435Z,97487.42
2018-12-29T17:29:48.946Z,97497.33
2018-12-29T17:32:16.109Z,97493.66
2018-12-29T17:34:43.225Z,97487.48
2018-12-29T17:37:10.332Z,97474.98
2018-12-29T17:39:37.843Z,97460.45
2018-12-29T17:42:05.009Z,97461.79
2018-12-29T17:44:32.126Z,97465.69
2018-12-29T17:46:59.556Z,97462.14
2018-12-29T17:49:26.710Z,97448.13
2018-12-29T17:51:54.148Z,97436.12
2018-12-29T17:54:21.233Z,97438.01
2018-12-29T17:56:48.371Z,97442.77
2018-12-29T17:59:15.527Z,97435.65
2018-12-29T18:01:42.973Z,97424.86
2018-12-29T18:04:10.059Z,97425.36
2018-12-29T18:06:38.181Z,97429.77
2018-12-29T18:09:05.849Z,97433.36
2018-12-29T18:11:32.987Z,97433.36
2018-12-29T18:14:00.413Z,97432.53
2018-12-29T18:16:29.913Z,97441.30
2018-12-29T18:18:57.146Z,97439.83
2018-12-29T18:21:24.511Z,97442.63
2018-12-29T18:23:53.749Z,97439.97
2018-12-29T18:26:21.164Z,97450.85
2018-12-29T18:28:48.425Z,97463.40
2018-12-29T18:31:15.556Z,97464.48
2018-12-29T18:33:42.690Z,97454.87
2018-12-29T18:36:09.848Z,97456.05
2018-12-29T18:38:38.302Z,97446.98
2018-12-29T18:41:05.408Z,97447.67
2018-12-29T18:43:32.555Z,97425.02
2018-12-29T18:46:01.058Z,97431.34
2018-12-29T18:48:28.216Z,97439.63
2018-12-29T18:50:58.264Z,97438.46
2018-12-29T18:53:25.390Z,97452.19
2018-12-29T18:55:52.559Z,97451.89
2018-12-29T18:58:19.691Z,97445.50
2018-12-29T19:00:46.827Z,97421.75
2018-12-29T19:03:14.354Z,97425.16
2018-12-29T19:05:41.778Z,97413.42
2018-12-29T19:08:09.163Z,97415.28
2018-12-29T19:10:36.786Z,97409.64
2018-12-29T19:13:05.613Z,97408.92
2018-12-29T19:15:33.013Z,97397.58
2018-12-29T19:18:00.426Z,97387.13
2018-12-29T19:20:28.203Z,97379.11
2018-12-29T19:22:55.340Z,97395.59
2018-12-29T19:25:22.675Z,97401.87
2018-12-29T19:27:49.851Z,97387.57
2018-12-29T19:30:17.446Z,97371.45
2018-12-29T19:32:44.868Z,97354.09
2018-12-29T19:35:12.001Z,97358.21
2018-12-29T19:37:39.193Z,97358.85
2018-12-29T19:40:10.702Z,97364.14
2018-12-29T19:42:38.175Z,97372.09
2018-12-29T19:45:06.755Z,97376.70
2018-12-29T19:47:34.055Z,97339.30
2018-12-29T19:50:01.704Z,97363.08
2018-12-29T19:52:32.146Z,97361.91
2018-12-29T19:54:59.293Z,97328.83
2018-12-29T19:57:26.847Z,97337.56
2018-12-29T19:59:54.386Z,97353.12
2018-12-29T20:02:22.215Z,97332.94
2018-12-29T20:04:49.778Z,97329.46
2018-12-29T20:07:17.580Z,97298.69
2018-12-29T20:09:45.075Z,97309.87
2018-12-29T20:12:16.015Z,97304.55
2018-12-29T20:14:44.282Z,97298.08
2018-12-29T20:17:11.794Z,97308.81
2018-12-29T20:19:39.049Z,97297.89
2018-12-29T20:22:06.513Z,97312.78
2018-12-29T20:24:34.696Z,97310.28
2018-12-29T20:27:04.348Z,97304.69
2018-12-29T20:29:31.552Z,97296.91
2018-12-29T20:31:58.816Z,97309.98
2018-12-29T20:34:28.169Z,97299.41
2018-12-29T20:36:55.394Z,97281.72
2018-12-29T20:39:22.563Z,97266.98
2018-12-29T20:41:49.805Z,97280.55
2018-12-29T20:44:17.350Z,97292.45
2018-12-29T20:46:44.851Z,97281.38
2018-12-29T20:49:12.585Z,97294.75
2018-12-29T20:51:41.051Z,97300.38
2018-12-29T20:54:08.306Z,97316.16
2018-12-29T20:56:36.133Z,97334.08
2018-12-29T20:59:03.303Z,97334.08
2018-12-29T21:01:31.474Z,97325.27
2018-12-29T21:03:58.964Z,97329.18
2018-12-29T21:06:30.036Z,97330.80
2018-12-29T21:08:58.584Z,97330.26
2018-12-29T21:11:26.000Z,97328.40
2018-12-29T21:13:53.403Z,97312.94
2018-12-29T21:16:20.572Z,97311.25
2018-12-29T21:18:50.685Z,97298.42
2018-12-29T21:21:18.902Z,97302.32
2018-12-29T21:23:46.073Z,97289.97
2018-12-29T21:26:14.012Z,97284.56
2018-12-29T21:28:41.432Z,97302.14
2018-12-29T21:31:08.572Z,97306.45
2018-12-29T21:33:36.001Z,97291.78
2018-12-29T21:36:04.941Z,97289.16
2018-12-29T21:38:32.122Z,97289.84
2018-12-29T21:40:59.319Z,97287.53
2018-12-29T21:43:26.522Z,97273.31
2018-12-29T21:45:53.903Z,97286.73
2018-12-29T21:48:21.631Z,97277.12
2018-12-29T21:50:49.907Z,97276.61
2018-12-29T21:53:17.050Z,97290.34
2018-12-29T21:55:44.992Z,97294.95
2018-12-29T21:58:14.395Z,97297.75
2018-12-29T22:00:41.556Z,97290.45
2018-12-29T22:03:08.904Z,97281.34
2018-12-29T22:05:36.029Z,97266.11
2018-12-29T22:08:03.380Z,97243.42
2018-12-29T22:10:30.533Z,97242.59
2018-12-29T22:12:57.664Z,97232.34
2018-12-29T22:15:26.308Z,97227.53
2018-12-29T22:17:53.777Z,97241.94
2018-12-29T22:20:20.891Z,97230.67
2018-12-29T22:22:48.021Z,97215.78
2018-12-29T22:25:15.608Z,97201.91
2018-12-29T22:27:42.756Z,97181.06
2018-12-29T22:30:09.861Z,97180.87
2018-12-29T22:32:37.276Z,97193.63
2018-12-29T22:35:04.420Z,97191.16
2018-12-29T22:37:31.563Z,97210.00
2018-12-29T22:39:58.997Z,97210.00
2018-12-29T22:42:26.105Z,97219.94
2018-12-29T22:44:53.218Z,97202.73
2018-12-29T22:47:20.408Z,97180.23
2018-12-29T22:49:47.835Z,97162.04
2018-12-29T22:52:14.929Z,97162.04
2018-12-29T22:54:42.092Z,97153.45
2018-12-29T22:57:09.222Z,97134.27
2018-12-29T22:59:36.349Z,97142.55
2018-12-29T23:02:03.649Z,97147.69
2018-12-29T23:04:30.759Z,97148.03
2018-12-29T23:06:57.863Z,97155.32
2018-12-29T23:09:24.955Z,97163.59
2018-12-29T23:11:52.055Z,97155.50
2018-12-29T23:14:19.165Z,97168.09
2018-12-29T23:16:46.297Z,97160.78
2018-12-29T23:19:13.392Z,97159.47
2018-12-29T23:21:40.473Z,97151.02
2018-12-29T23:24:07.773Z,97143.58
2018-12-29T23:26:34.822Z,97148.38
2018-12-29T23:29:01.904Z,97149.89
2018-12-29T23:31:28.949Z,97139.80
2018-12-29T23:33:56.013Z,97146.91
2018-12-29T23:36:23.376Z,97139.09
2018-12-29T23:38:50.483Z,97139.91
2018-12-29T23:41:17.539Z,97141.05
2018-12-29T23:43:44.899Z,97135.75
2018-12-29T23:46:11.949Z,97133.94
2018-12-29T23:48:38.995Z,97138.22
2018-12-29T23:51:06.058Z,97128.63
2018-12-29T23:53:33.096Z,97134.91
2018-12-29T23:56:00.565Z,97128.94
2018-12-29T23:58:27.599Z,97131.09
